Дата Пункты Температура Давл., мм. Влажн., % Ветер Погодные явления
Воздуха Воды Направл. Скорость
08.11.18 08:00 Одесса 8.0 12.0 765 83 Пн 1 20 ГОДИН
08.11.18 05:00 Одесса 10.0 12.0 765 68 С 3 17 ГОДИН
08.11.18 02:00 Одесса 10.0 12.0 765 68 С 4 14 ГОДИН
08.11.18 11:00 Одесса 9.0 12.0 766 79 С 5 11 ГОДИН
08.11.18 08:00 Одесса 7.0 12.0 766 90 Пн-С 4 08 ГОДИН
08.11.18 05:00 Одесса 8.0 13.0 765 89 Пн-С 5 05 ГОДИН
08.11.18 02:00 Одесса 10.0 13.0 765 73 С 2 02 ГОДИНИ
07.11.18 11:00 Одесса 11.0 13.0 766 75 С 6 23 ГОДИНИ
07.11.18 08:00 Одесса 8.0 13.0 766 88 Пн 1 20 ГОДИН
07.11.18 05:00 Одесса 10.0 12.0 766 74 С 2 17 ГОДИН
07.11.18 02:00 Одесса 10.0 12.0 766 74 С 3 14 ГОДИН
07.11.18 11:00 Одесса 9.0 12.0 767 86 С 4 11 ГОДИН
07.11.18 08:00 Одесса 6.0 12.0 767 90 Пн 3 08 ГОДИН
07.11.18 05:00 Одесса 7.0 13.0 767 89 Пн-С 6 05 ГОДИН
07.11.18 02:00 Одесса 10.0 13.0 767 76 С 3 02 ГОДИНИ
06.11.18 11:00 Одесса 10.0 13.0 767 72 С 7 23 ГОДИНИ
06.11.18 08:00 Одесса 8.0 13.0 767 85 Пн 0 20 ГОДИН
06.11.18 05:00 Одесса 7.0 13.0 767 86 Пн 0 17 ГОДИН
06.11.18 02:00 Одесса 10.0 13.0 767 71 С 3 14 ГОДИН
06.11.18 11:00 Одесса 9.0 13.0 768 74 С 3 11 ГОДИН
Количество строк
1 2 3 4 5 6 7 8 9 10
Page 4 of 426